sensor_id;sensor_type;location;lat;lon;timestamp;temperature;humidity
65146;DHT22;51730;56.950;24.126;2022-10-16T00:01:08;12.40;99.90
65146;DHT22;51730;56.950;24.126;2022-10-16T00:03:36;12.40;99.90
65146;DHT22;51730;56.950;24.126;2022-10-16T00:06:04;12.40;99.90
65146;DHT22;51730;56.950;24.126;2022-10-16T00:08:31;12.40;99.90
65146;DHT22;51730;56.950;24.126;2022-10-16T00:11:04;12.40;99.90
65146;DHT22;51730;56.950;24.126;2022-10-16T00:13:32;12.40;99.90
65146;DHT22;51730;56.950;24.126;2022-10-16T00:16:00;12.40;99.90
65146;DHT22;51730;56.950;24.126;2022-10-16T00:18:28;12.40;99.90
65146;DHT22;51730;56.950;24.126;2022-10-16T00:20:55;12.40;99.90
65146;DHT22;51730;56.950;24.126;2022-10-16T00:23:22;12.40;99.90
65146;DHT22;51730;56.950;24.126;2022-10-16T00:25:57;12.40;99.90
65146;DHT22;51730;56.950;24.126;2022-10-16T00:28:25;12.40;99.90
65146;DHT22;51730;56.950;24.126;2022-10-16T00:30:52;12.40;99.90
65146;DHT22;51730;56.950;24.126;2022-10-16T00:33:20;12.40;99.90
65146;DHT22;51730;56.950;24.126;2022-10-16T00:35:47;12.40;99.90
65146;DHT22;51730;56.950;24.126;2022-10-16T00:38:14;12.40;99.90
65146;DHT22;51730;56.950;24.126;2022-10-16T00:40:41;12.30;99.90
65146;DHT22;51730;56.950;24.126;2022-10-16T00:46:00;12.30;99.90
65146;DHT22;51730;56.950;24.126;2022-10-16T00:48:27;12.30;99.90
65146;DHT22;51730;56.950;24.126;2022-10-16T00:50:54;12.30;99.90
65146;DHT22;51730;56.950;24.126;2022-10-16T00:53:21;12.30;99.90
65146;DHT22;51730;56.950;24.126;2022-10-16T00:55:49;12.30;99.90
65146;DHT22;51730;56.950;24.126;2022-10-16T00:58:15;12.30;99.90
65146;DHT22;51730;56.950;24.126;2022-10-16T01:00:42;12.30;99.90
65146;DHT22;51730;56.950;24.126;2022-10-16T01:03:42;12.30;99.90
65146;DHT22;51730;56.950;24.126;2022-10-16T01:09:21;12.40;99.90
65146;DHT22;51730;56.950;24.126;2022-10-16T01:17:20;12.30;99.90
65146;DHT22;51730;56.950;24.126;2022-10-16T01:23:09;12.40;99.90
65146;DHT22;51730;56.950;24.126;2022-10-16T01:28:15;12.40;99.90
65146;DHT22;51730;56.950;24.126;2022-10-16T01:30:45;12.30;99.90
65146;DHT22;51730;56.950;24.126;2022-10-16T01:33:22;12.40;99.90
65146;DHT22;51730;56.950;24.126;2022-10-16T01:35:58;12.30;99.90
65146;DHT22;51730;56.950;24.126;2022-10-16T01:38:34;12.30;99.90
65146;DHT22;51730;56.950;24.126;2022-10-16T01:41:24;12.30;99.90
65146;DHT22;51730;56.950;24.126;2022-10-16T01:44:03;12.30;99.90
65146;DHT22;51730;56.950;24.126;2022-10-16T01:46:31;12.30;99.90
65146;DHT22;51730;56.950;24.126;2022-10-16T01:49:00;12.20;99.90
65146;DHT22;51730;56.950;24.126;2022-10-16T01:51:29;12.20;99.90
65146;DHT22;51730;56.950;24.126;2022-10-16T01:53:58;12.30;99.90
65146;DHT22;51730;56.950;24.126;2022-10-16T01:56:27;12.30;99.90
65146;DHT22;51730;56.950;24.126;2022-10-16T01:59:02;12.30;99.90
65146;DHT22;51730;56.950;24.126;2022-10-16T02:01:33;12.30;99.90
65146;DHT22;51730;56.950;24.126;2022-10-16T02:04:09;12.30;99.90
65146;DHT22;51730;56.950;24.126;2022-10-16T02:06:39;12.30;99.90
65146;DHT22;51730;56.950;24.126;2022-10-16T02:09:06;12.30;99.90
65146;DHT22;51730;56.950;24.126;2022-10-16T02:11:33;12.30;99.90
65146;DHT22;51730;56.950;24.126;2022-10-16T02:14:06;12.30;99.90
65146;DHT22;51730;56.950;24.126;2022-10-16T02:16:43;12.30;99.90
65146;DHT22;51730;56.950;24.126;2022-10-16T02:19:12;12.30;99.90
65146;DHT22;51730;56.950;24.126;2022-10-16T02:24:29;12.30;99.90
65146;DHT22;51730;56.950;24.126;2022-10-16T02:27:16;12.30;99.90
65146;DHT22;51730;56.950;24.126;2022-10-16T02:29:52;12.30;99.90
65146;DHT22;51730;56.950;24.126;2022-10-16T02:32:23;12.30;99.90
65146;DHT22;51730;56.950;24.126;2022-10-16T02:34:51;12.30;99.90
65146;DHT22;51730;56.950;24.126;2022-10-16T02:37:19;12.40;99.90
65146;DHT22;51730;56.950;24.126;2022-10-16T02:39:46;12.30;99.90
65146;DHT22;51730;56.950;24.126;2022-10-16T02:42:13;12.40;99.90
65146;DHT22;51730;56.950;24.126;2022-10-16T02:44:41;12.40;99.90
65146;DHT22;51730;56.950;24.126;2022-10-16T02:47:07;12.40;99.90
65146;DHT22;51730;56.950;24.126;2022-10-16T02:49:34;12.40;99.90
65146;DHT22;51730;56.950;24.126;2022-10-16T02:52:01;12.40;99.90
65146;DHT22;51730;56.950;24.126;2022-10-16T02:54:28;12.40;99.90
65146;DHT22;51730;56.950;24.126;2022-10-16T02:56:55;12.40;99.90
65146;DHT22;51730;56.950;24.126;2022-10-16T02:59:22;12.40;99.90
65146;DHT22;51730;56.950;24.126;2022-10-16T03:01:49;12.40;99.90
65146;DHT22;51730;56.950;24.126;2022-10-16T03:04:15;12.40;99.90
65146;DHT22;51730;56.950;24.126;2022-10-16T03:06:42;12.40;99.90
65146;DHT22;51730;56.950;24.126;2022-10-16T03:09:09;12.40;99.90
65146;DHT22;51730;56.950;24.126;2022-10-16T03:11:36;12.40;99.90
65146;DHT22;51730;56.950;24.126;2022-10-16T03:14:03;12.40;99.90
65146;DHT22;51730;56.950;24.126;2022-10-16T03:16:30;12.40;99.90
65146;DHT22;51730;56.950;24.126;2022-10-16T03:18:57;12.50;99.90
65146;DHT22;51730;56.950;24.126;2022-10-16T03:21:23;12.50;99.90
65146;DHT22;51730;56.950;24.126;2022-10-16T03:23:51;12.50;99.90
65146;DHT22;51730;56.950;24.126;2022-10-16T03:26:18;12.50;99.90
65146;DHT22;51730;56.950;24.126;2022-10-16T03:28:45;12.50;99.90
65146;DHT22;51730;56.950;24.126;2022-10-16T03:31:12;12.50;99.90
65146;DHT22;51730;56.950;24.126;2022-10-16T03:33:38;12.50;99.90
65146;DHT22;51730;56.950;24.126;2022-10-16T03:36:06;12.50;99.90
65146;DHT22;51730;56.950;24.126;2022-10-16T03:38:33;12.50;99.90
65146;DHT22;51730;56.950;24.126;2022-10-16T03:41:00;12.50;99.90
65146;DHT22;51730;56.950;24.126;2022-10-16T03:43:27;12.50;99.90
65146;DHT22;51730;56.950;24.126;2022-10-16T03:45:53;12.50;99.90
65146;DHT22;51730;56.950;24.126;2022-10-16T03:48:20;12.50;99.90
65146;DHT22;51730;56.950;24.126;2022-10-16T03:50:47;12.50;99.90
65146;DHT22;51730;56.950;24.126;2022-10-16T03:53:15;12.50;99.90
65146;DHT22;51730;56.950;24.126;2022-10-16T03:55:43;12.50;99.90
65146;DHT22;51730;56.950;24.126;2022-10-16T03:58:10;12.50;99.90
65146;DHT22;51730;56.950;24.126;2022-10-16T04:00:44;12.50;99.90
65146;DHT22;51730;56.950;24.126;2022-10-16T04:03:11;12.60;99.90
65146;DHT22;51730;56.950;24.126;2022-10-16T04:05:38;12.60;99.90
65146;DHT22;51730;56.950;24.126;2022-10-16T04:08:06;12.60;99.90
65146;DHT22;51730;56.950;24.126;2022-10-16T04:10:32;12.70;99.90
65146;DHT22;51730;56.950;24.126;2022-10-16T04:13:00;12.70;99.90
65146;DHT22;51730;56.950;24.126;2022-10-16T04:15:27;12.70;99.90
65146;DHT22;51730;56.950;24.126;2022-10-16T04:17:54;12.70;99.90
65146;DHT22;51730;56.950;24.126;2022-10-16T04:20:21;12.70;99.90
65146;DHT22;51730;56.950;24.126;2022-10-16T04:22:48;12.70;99.90
65146;DHT22;51730;56.950;24.126;2022-10-16T04:25:14;12.70;99.90
65146;DHT22;51730;56.950;24.126;2022-10-16T04:27:41;12.70;99.90
65146;DHT22;51730;56.950;24.126;2022-10-16T04:30:12;12.70;99.90
65146;DHT22;51730;56.950;24.126;2022-10-16T04:32:40;12.70;99.90
65146;DHT22;51730;56.950;24.126;2022-10-16T04:35:07;12.80;99.90
65146;DHT22;51730;56.950;24.126;2022-10-16T04:37:34;12.80;99.90
65146;DHT22;51730;56.950;24.126;2022-10-16T04:40:01;12.70;99.90
65146;DHT22;51730;56.950;24.126;2022-10-16T04:42:27;12.80;99.90
65146;DHT22;51730;56.950;24.126;2022-10-16T04:44:54;12.80;99.90
65146;DHT22;51730;56.950;24.126;2022-10-16T04:47:21;12.80;99.90
65146;DHT22;51730;56.950;24.126;2022-10-16T04:49:48;12.80;99.90
65146;DHT22;51730;56.950;24.126;2022-10-16T04:52:15;12.80;99.90
65146;DHT22;51730;56.950;24.126;2022-10-16T04:54:42;12.80;99.90
65146;DHT22;51730;56.950;24.126;2022-10-16T04:57:11;12.80;99.90
65146;DHT22;51730;56.950;24.126;2022-10-16T04:59:38;12.80;99.90
65146;DHT22;51730;56.950;24.126;2022-10-16T05:02:05;12.80;99.90
65146;DHT22;51730;56.950;24.126;2022-10-16T05:04:32;12.80;99.90
65146;DHT22;51730;56.950;24.126;2022-10-16T05:06:59;12.80;99.90
65146;DHT22;51730;56.950;24.126;2022-10-16T05:09:26;12.90;99.90
65146;DHT22;51730;56.950;24.126;2022-10-16T05:11:53;12.90;99.90
65146;DHT22;51730;56.950;24.126;2022-10-16T05:14:19;12.90;99.90
65146;DHT22;51730;56.950;24.126;2022-10-16T05:16:46;12.90;99.90
65146;DHT22;51730;56.950;24.126;2022-10-16T05:19:14;12.90;99.90
65146;DHT22;51730;56.950;24.126;2022-10-16T05:21:53;12.90;99.90
65146;DHT22;51730;56.950;24.126;2022-10-16T05:24:20;12.90;99.90
65146;DHT22;51730;56.950;24.126;2022-10-16T05:26:46;12.90;99.90
65146;DHT22;51730;56.950;24.126;2022-10-16T05:29:14;12.90;99.90
65146;DHT22;51730;56.950;24.126;2022-10-16T05:31:41;13.00;99.90
65146;DHT22;51730;56.950;24.126;2022-10-16T05:34:07;13.00;99.90
65146;DHT22;51730;56.950;24.126;2022-10-16T05:36:34;13.00;99.90
65146;DHT22;51730;56.950;24.126;2022-10-16T05:39:01;13.00;99.90
65146;DHT22;51730;56.950;24.126;2022-10-16T05:41:28;13.00;99.90
65146;DHT22;51730;56.950;24.126;2022-10-16T05:43:55;13.00;99.90
65146;DHT22;51730;56.950;24.126;2022-10-16T05:46:22;13.00;99.90
65146;DHT22;51730;56.950;24.126;2022-10-16T05:48:52;13.10;99.90
65146;DHT22;51730;56.950;24.126;2022-10-16T05:51:19;13.10;99.90
65146;DHT22;51730;56.950;24.126;2022-10-16T05:53:46;13.10;99.90
65146;DHT22;51730;56.950;24.126;2022-10-16T05:56:13;13.10;99.90
65146;DHT22;51730;56.950;24.126;2022-10-16T05:58:41;13.10;99.90
65146;DHT22;51730;56.950;24.126;2022-10-16T06:01:11;13.10;99.90
65146;DHT22;51730;56.950;24.126;2022-10-16T06:03:39;13.10;99.90
65146;DHT22;51730;56.950;24.126;2022-10-16T06:06:14;13.10;99.90
65146;DHT22;51730;56.950;24.126;2022-10-16T06:08:42;13.10;99.90
65146;DHT22;51730;56.950;24.126;2022-10-16T06:11:12;13.20;99.90
65146;DHT22;51730;56.950;24.126;2022-10-16T06:13:39;13.20;99.90
65146;DHT22;51730;56.950;24.126;2022-10-16T06:16:10;13.20;99.90
65146;DHT22;51730;56.950;24.126;2022-10-16T06:18:37;13.20;99.90
65146;DHT22;51730;56.950;24.126;2022-10-16T06:21:09;13.20;99.90
65146;DHT22;51730;56.950;24.126;2022-10-16T06:23:37;13.20;99.90
65146;DHT22;51730;56.950;24.126;2022-10-16T06:26:09;13.30;99.90
65146;DHT22;51730;56.950;24.126;2022-10-16T06:28:37;13.30;99.90
65146;DHT22;51730;56.950;24.126;2022-10-16T06:31:05;13.30;99.90
65146;DHT22;51730;56.950;24.126;2022-10-16T06:33:34;13.30;99.90
65146;DHT22;51730;56.950;24.126;2022-10-16T06:36:10;13.30;99.90
65146;DHT22;51730;56.950;24.126;2022-10-16T06:38:38;13.30;99.90
65146;DHT22;51730;56.950;24.126;2022-10-16T06:41:06;13.30;99.90
65146;DHT22;51730;56.950;24.126;2022-10-16T06:43:33;13.40;99.90
65146;DHT22;51730;56.950;24.126;2022-10-16T06:46:05;13.30;99.90
65146;DHT22;51730;56.950;24.126;2022-10-16T06:48:34;13.40;99.90
65146;DHT22;51730;56.950;24.126;2022-10-16T06:51:04;13.40;99.90
65146;DHT22;51730;56.950;24.126;2022-10-16T06:53:40;13.40;99.90
65146;DHT22;51730;56.950;24.126;2022-10-16T06:56:27;13.40;99.90
65146;DHT22;51730;56.950;24.126;2022-10-16T06:58:56;13.40;99.90
65146;DHT22;51730;56.950;24.126;2022-10-16T07:01:24;13.30;99.90
65146;DHT22;51730;56.950;24.126;2022-10-16T07:03:52;13.30;99.90
65146;DHT22;51730;56.950;24.126;2022-10-16T07:06:21;13.30;99.90
65146;DHT22;51730;56.950;24.126;2022-10-16T07:08:48;13.40;99.90
65146;DHT22;51730;56.950;24.126;2022-10-16T07:11:17;13.40;99.90
65146;DHT22;51730;56.950;24.126;2022-10-16T07:13:45;13.30;99.90
65146;DHT22;51730;56.950;24.126;2022-10-16T07:16:22;13.30;99.90
65146;DHT22;51730;56.950;24.126;2022-10-16T07:18:50;13.40;99.90
65146;DHT22;51730;56.950;24.126;2022-10-16T07:21:22;13.40;99.90
65146;DHT22;51730;56.950;24.126;2022-10-16T07:23:53;13.40;99.90
65146;DHT22;51730;56.950;24.126;2022-10-16T07:26:21;13.30;99.90
65146;DHT22;51730;56.950;24.126;2022-10-16T07:28:49;13.30;99.90
65146;DHT22;51730;56.950;24.126;2022-10-16T07:31:17;13.40;99.90
65146;DHT22;51730;56.950;24.126;2022-10-16T07:33:45;13.40;99.90
65146;DHT22;51730;56.950;24.126;2022-10-16T07:36:15;13.40;99.90
65146;DHT22;51730;56.950;24.126;2022-10-16T07:38:43;13.40;99.90
65146;DHT22;51730;56.950;24.126;2022-10-16T07:41:13;13.40;99.90
65146;DHT22;51730;56.950;24.126;2022-10-16T07:43:40;13.40;99.90
65146;DHT22;51730;56.950;24.126;2022-10-16T07:46:07;13.40;99.90
65146;DHT22;51730;56.950;24.126;2022-10-16T07:48:34;13.40;99.90
65146;DHT22;51730;56.950;24.126;2022-10-16T07:51:03;13.50;99.90
65146;DHT22;51730;56.950;24.126;2022-10-16T07:53:30;13.50;99.90
65146;DHT22;51730;56.950;24.126;2022-10-16T07:55:59;13.50;99.90
65146;DHT22;51730;56.950;24.126;2022-10-16T07:58:27;13.60;99.90
65146;DHT22;51730;56.950;24.126;2022-10-16T08:00:55;13.70;99.90
65146;DHT22;51730;56.950;24.126;2022-10-16T08:03:23;13.70;99.90
65146;DHT22;51730;56.950;24.126;2022-10-16T08:05:50;13.80;99.90
65146;DHT22;51730;56.950;24.126;2022-10-16T08:08:18;13.80;99.90
65146;DHT22;51730;56.950;24.126;2022-10-16T08:10:45;13.80;99.90
65146;DHT22;51730;56.950;24.126;2022-10-16T08:13:12;13.80;99.90
65146;DHT22;51730;56.950;24.126;2022-10-16T08:15:45;13.80;99.90
65146;DHT22;51730;56.950;24.126;2022-10-16T08:18:14;13.90;99.90
65146;DHT22;51730;56.950;24.126;2022-10-16T08:20:42;13.90;99.90
65146;DHT22;51730;56.950;24.126;2022-10-16T08:23:12;14.00;99.90
65146;DHT22;51730;56.950;24.126;2022-10-16T08:25:42;14.10;99.90
65146;DHT22;51730;56.950;24.126;2022-10-16T08:28:11;14.00;99.90
65146;DHT22;51730;56.950;24.126;2022-10-16T08:30:38;14.10;99.90
65146;DHT22;51730;56.950;24.126;2022-10-16T08:33:05;14.10;99.90
65146;DHT22;51730;56.950;24.126;2022-10-16T08:35:33;14.10;99.90
65146;DHT22;51730;56.950;24.126;2022-10-16T08:38:00;14.10;99.90
65146;DHT22;51730;56.950;24.126;2022-10-16T08:40:29;14.10;99.90
65146;DHT22;51730;56.950;24.126;2022-10-16T08:43:16;14.20;99.90
65146;DHT22;51730;56.950;24.126;2022-10-16T08:46:20;14.20;99.90
65146;DHT22;51730;56.950;24.126;2022-10-16T08:48:56;14.10;99.90
65146;DHT22;51730;56.950;24.126;2022-10-16T08:51:29;14.10;99.90
65146;DHT22;51730;56.950;24.126;2022-10-16T08:53:59;14.10;99.90
65146;DHT22;51730;56.950;24.126;2022-10-16T08:56:28;14.10;99.90
65146;DHT22;51730;56.950;24.126;2022-10-16T08:58:58;14.10;99.90
65146;DHT22;51730;56.950;24.126;2022-10-16T09:01:49;14.10;99.90
65146;DHT22;51730;56.950;24.126;2022-10-16T09:06:58;14.20;99.90
65146;DHT22;51730;56.950;24.126;2022-10-16T09:17:45;14.20;99.90
65146;DHT22;51730;56.950;24.126;2022-10-16T09:22:43;14.20;99.90
65146;DHT22;51730;56.950;24.126;2022-10-16T09:25:15;14.20;99.90
65146;DHT22;51730;56.950;24.126;2022-10-16T09:27:46;14.20;99.90
65146;DHT22;51730;56.950;24.126;2022-10-16T09:30:18;14.20;99.90
65146;DHT22;51730;56.950;24.126;2022-10-16T09:32:48;14.30;99.90
65146;DHT22;51730;56.950;24.126;2022-10-16T09:35:19;14.20;99.90
65146;DHT22;51730;56.950;24.126;2022-10-16T09:37:49;14.30;99.90
65146;DHT22;51730;56.950;24.126;2022-10-16T09:40:37;14.30;99.90
65146;DHT22;51730;56.950;24.126;2022-10-16T09:43:27;14.30;99.90
65146;DHT22;51730;56.950;24.126;2022-10-16T09:48:43;14.30;99.90
65146;DHT22;51730;56.950;24.126;2022-10-16T09:53:48;14.30;99.90
65146;DHT22;51730;56.950;24.126;2022-10-16T09:56:36;14.30;99.90
65146;DHT22;51730;56.950;24.126;2022-10-16T09:59:11;14.30;99.90
65146;DHT22;51730;56.950;24.126;2022-10-16T10:01:45;14.30;99.90
65146;DHT22;51730;56.950;24.126;2022-10-16T10:04:13;14.30;99.90
65146;DHT22;51730;56.950;24.126;2022-10-16T10:09:21;14.30;99.90
65146;DHT22;51730;56.950;24.126;2022-10-16T10:12:01;14.30;99.90
65146;DHT22;51730;56.950;24.126;2022-10-16T10:14:39;14.30;99.90
65146;DHT22;51730;56.950;24.126;2022-10-16T10:25:43;14.40;99.90
65146;DHT22;51730;56.950;24.126;2022-10-16T10:31:14;14.40;99.90
65146;DHT22;51730;56.950;24.126;2022-10-16T10:33:58;14.40;99.90
65146;DHT22;51730;56.950;24.126;2022-10-16T10:36:34;14.40;99.90
65146;DHT22;51730;56.950;24.126;2022-10-16T10:42:12;14.40;99.90
65146;DHT22;51730;56.950;24.126;2022-10-16T10:58:13;14.60;99.90
65146;DHT22;51730;56.950;24.126;2022-10-16T11:01:08;14.60;99.90
65146;DHT22;51730;56.950;24.126;2022-10-16T11:09:26;14.60;99.90
65146;DHT22;51730;56.950;24.126;2022-10-16T11:11:57;14.60;99.90
65146;DHT22;51730;56.950;24.126;2022-10-16T11:14:36;14.70;99.90
65146;DHT22;51730;56.950;24.126;2022-10-16T11:17:12;14.70;99.90
65146;DHT22;51730;56.950;24.126;2022-10-16T11:19:45;14.70;99.90
65146;DHT22;51730;56.950;24.126;2022-10-16T11:22:32;14.70;99.90
65146;DHT22;51730;56.950;24.126;2022-10-16T11:25:31;14.70;99.90
65146;DHT22;51730;56.950;24.126;2022-10-16T11:36:17;14.60;99.90
65146;DHT22;51730;56.950;24.126;2022-10-16T11:41:42;14.60;99.90
65146;DHT22;51730;56.950;24.126;2022-10-16T11:49:58;14.60;99.90
65146;DHT22;51730;56.950;24.126;2022-10-16T11:52:33;14.60;99.90
65146;DHT22;51730;56.950;24.126;2022-10-16T11:55:20;14.60;99.90
65146;DHT22;51730;56.950;24.126;2022-10-16T11:57:52;14.50;99.90
65146;DHT22;51730;56.950;24.126;2022-10-16T12:00:28;14.50;99.90
65146;DHT22;51730;56.950;24.126;2022-10-16T12:03:17;14.50;99.90
65146;DHT22;51730;56.950;24.126;2022-10-16T12:06:06;14.50;99.90
65146;DHT22;51730;56.950;24.126;2022-10-16T12:08:39;14.50;99.90
65146;DHT22;51730;56.950;24.126;2022-10-16T12:17:00;14.60;99.90
65146;DHT22;51730;56.950;24.126;2022-10-16T12:19:29;14.70;99.90
65146;DHT22;51730;56.950;24.126;2022-10-16T12:21:58;14.70;99.90
65146;DHT22;51730;56.950;24.126;2022-10-16T12:24:41;14.70;99.90
65146;DHT22;51730;56.950;24.126;2022-10-16T12:30:02;14.70;99.90
65146;DHT22;51730;56.950;24.126;2022-10-16T12:32:37;14.80;99.90
65146;DHT22;51730;56.950;24.126;2022-10-16T12:35:20;14.80;99.90
65146;DHT22;51730;56.950;24.126;2022-10-16T12:37:48;14.80;99.90
65146;DHT22;51730;56.950;24.126;2022-10-16T12:42:53;14.80;99.90
65146;DHT22;51730;56.950;24.126;2022-10-16T12:45:32;14.70;99.90
65146;DHT22;51730;56.950;24.126;2022-10-16T12:48:01;14.70;99.90
65146;DHT22;51730;56.950;24.126;2022-10-16T12:50:39;14.70;99.90
65146;DHT22;51730;56.950;24.126;2022-10-16T12:53:24;14.60;99.90
65146;DHT22;51730;56.950;24.126;2022-10-16T13:01:22;14.60;99.90
65146;DHT22;51730;56.950;24.126;2022-10-16T13:04:22;14.60;99.90
65146;DHT22;51730;56.950;24.126;2022-10-16T13:15:34;14.60;99.90
65146;DHT22;51730;56.950;24.126;2022-10-16T13:26:59;14.70;99.90
65146;DHT22;51730;56.950;24.126;2022-10-16T13:29:32;14.70;99.90
65146;DHT22;51730;56.950;24.126;2022-10-16T13:32:06;14.70;99.90
65146;DHT22;51730;56.950;24.126;2022-10-16T13:34:44;14.70;99.90
65146;DHT22;51730;56.950;24.126;2022-10-16T13:37:20;14.80;99.90
65146;DHT22;51730;56.950;24.126;2022-10-16T13:39:48;14.80;99.90
65146;DHT22;51730;56.950;24.126;2022-10-16T13:42:28;14.80;99.90
65146;DHT22;51730;56.950;24.126;2022-10-16T13:44:56;14.80;99.90
65146;DHT22;51730;56.950;24.126;2022-10-16T13:47:28;14.70;99.90
65146;DHT22;51730;56.950;24.126;2022-10-16T13:50:04;14.70;99.90
65146;DHT22;51730;56.950;24.126;2022-10-16T13:52:31;14.60;99.90
65146;DHT22;51730;56.950;24.126;2022-10-16T13:54:58;14.60;99.90
65146;DHT22;51730;56.950;24.126;2022-10-16T13:57:28;14.60;99.90
65146;DHT22;51730;56.950;24.126;2022-10-16T13:59:55;14.50;99.90
65146;DHT22;51730;56.950;24.126;2022-10-16T14:02:31;14.50;99.90
65146;DHT22;51730;56.950;24.126;2022-10-16T14:05:02;14.50;99.90
65146;DHT22;51730;56.950;24.126;2022-10-16T14:07:32;14.50;99.90
65146;DHT22;51730;56.950;24.126;2022-10-16T14:10:18;14.50;99.90
65146;DHT22;51730;56.950;24.126;2022-10-16T14:13:01;14.50;99.90
65146;DHT22;51730;56.950;24.126;2022-10-16T14:15:30;14.50;99.90
65146;DHT22;51730;56.950;24.126;2022-10-16T14:17:58;14.50;99.90
65146;DHT22;51730;56.950;24.126;2022-10-16T14:20:31;14.50;99.90
65146;DHT22;51730;56.950;24.126;2022-10-16T14:23:37;14.40;99.90
65146;DHT22;51730;56.950;24.126;2022-10-16T14:28:39;14.40;99.90
65146;DHT22;51730;56.950;24.126;2022-10-16T14:31:29;14.40;99.90
65146;DHT22;51730;56.950;24.126;2022-10-16T14:33:56;14.40;99.90
65146;DHT22;51730;56.950;24.126;2022-10-16T14:36:23;14.40;99.90
65146;DHT22;51730;56.950;24.126;2022-10-16T14:39:02;14.40;99.90
65146;DHT22;51730;56.950;24.126;2022-10-16T14:41:31;14.50;99.90
65146;DHT22;51730;56.950;24.126;2022-10-16T14:44:03;14.50;99.90
65146;DHT22;51730;56.950;24.126;2022-10-16T14:46:38;14.50;99.90
65146;DHT22;51730;56.950;24.126;2022-10-16T14:51:40;14.50;99.90
65146;DHT22;51730;56.950;24.126;2022-10-16T14:54:09;14.40;99.90
65146;DHT22;51730;56.950;24.126;2022-10-16T14:56:47;14.40;99.90
65146;DHT22;51730;56.950;24.126;2022-10-16T14:59:25;14.50;99.90
65146;DHT22;51730;56.950;24.126;2022-10-16T15:01:54;14.40;99.90
65146;DHT22;51730;56.950;24.126;2022-10-16T15:04:21;14.40;99.90
65146;DHT22;51730;56.950;24.126;2022-10-16T15:06:48;14.40;99.90
65146;DHT22;51730;56.950;24.126;2022-10-16T15:09:15;14.40;99.90
65146;DHT22;51730;56.950;24.126;2022-10-16T15:11:42;14.40;99.90
65146;DHT22;51730;56.950;24.126;2022-10-16T15:14:11;14.40;99.90
65146;DHT22;51730;56.950;24.126;2022-10-16T15:16:45;14.40;99.90
65146;DHT22;51730;56.950;24.126;2022-10-16T15:19:12;14.40;99.90
65146;DHT22;51730;56.950;24.126;2022-10-16T15:21:39;14.40;99.90
65146;DHT22;51730;56.950;24.126;2022-10-16T15:24:12;14.40;99.90
65146;DHT22;51730;56.950;24.126;2022-10-16T15:26:44;14.40;99.90
65146;DHT22;51730;56.950;24.126;2022-10-16T15:29:16;14.30;99.90
65146;DHT22;51730;56.950;24.126;2022-10-16T15:31:42;14.30;99.90
65146;DHT22;51730;56.950;24.126;2022-10-16T15:34:10;14.30;99.90
65146;DHT22;51730;56.950;24.126;2022-10-16T15:36:37;14.30;99.90
65146;DHT22;51730;56.950;24.126;2022-10-16T15:39:11;14.30;99.90
65146;DHT22;51730;56.950;24.126;2022-10-16T15:41:39;14.20;99.90
65146;DHT22;51730;56.950;24.126;2022-10-16T15:44:07;14.20;99.90
65146;DHT22;51730;56.950;24.126;2022-10-16T15:46:34;14.20;99.90
65146;DHT22;51730;56.950;24.126;2022-10-16T15:49:01;14.10;99.90
65146;DHT22;51730;56.950;24.126;2022-10-16T15:51:28;14.10;99.90
65146;DHT22;51730;56.950;24.126;2022-10-16T15:53:56;14.10;99.90
65146;DHT22;51730;56.950;24.126;2022-10-16T15:56:23;14.10;99.90
65146;DHT22;51730;56.950;24.126;2022-10-16T15:58:52;14.10;99.90
65146;DHT22;51730;56.950;24.126;2022-10-16T16:01:20;14.10;99.90
65146;DHT22;51730;56.950;24.126;2022-10-16T16:03:55;14.10;99.90
65146;DHT22;51730;56.950;24.126;2022-10-16T16:06:22;14.10;99.90
65146;DHT22;51730;56.950;24.126;2022-10-16T16:08:52;14.10;99.90
65146;DHT22;51730;56.950;24.126;2022-10-16T16:11:19;14.10;99.90
65146;DHT22;51730;56.950;24.126;2022-10-16T16:13:46;14.20;99.90
65146;DHT22;51730;56.950;24.126;2022-10-16T16:16:15;14.20;99.90
65146;DHT22;51730;56.950;24.126;2022-10-16T16:18:42;14.20;99.90
65146;DHT22;51730;56.950;24.126;2022-10-16T16:21:11;14.20;99.90
65146;DHT22;51730;56.950;24.126;2022-10-16T16:23:38;14.20;99.90
65146;DHT22;51730;56.950;24.126;2022-10-16T16:26:12;14.20;99.90
65146;DHT22;51730;56.950;24.126;2022-10-16T16:28:41;14.30;99.90
65146;DHT22;51730;56.950;24.126;2022-10-16T16:31:08;14.30;99.90
65146;DHT22;51730;56.950;24.126;2022-10-16T16:33:35;14.30;99.90
65146;DHT22;51730;56.950;24.126;2022-10-16T16:36:04;14.30;99.90
65146;DHT22;51730;56.950;24.126;2022-10-16T16:38:40;14.30;99.90
65146;DHT22;51730;56.950;24.126;2022-10-16T16:41:19;14.40;99.90
65146;DHT22;51730;56.950;24.126;2022-10-16T16:43:47;14.40;99.90
65146;DHT22;51730;56.950;24.126;2022-10-16T16:46:15;14.40;99.90
65146;DHT22;51730;56.950;24.126;2022-10-16T16:48:41;14.40;99.90
65146;DHT22;51730;56.950;24.126;2022-10-16T16:51:11;14.40;99.90
65146;DHT22;51730;56.950;24.126;2022-10-16T16:53:44;14.40;99.90
65146;DHT22;51730;56.950;24.126;2022-10-16T16:56:11;14.40;99.90
65146;DHT22;51730;56.950;24.126;2022-10-16T16:58:38;14.40;99.90
65146;DHT22;51730;56.950;24.126;2022-10-16T17:01:08;14.50;99.90
65146;DHT22;51730;56.950;24.126;2022-10-16T17:03:53;14.40;99.90
65146;DHT22;51730;56.950;24.126;2022-10-16T17:06:21;14.50;99.90
65146;DHT22;51730;56.950;24.126;2022-10-16T17:08:49;14.50;99.90
65146;DHT22;51730;56.950;24.126;2022-10-16T17:11:19;14.40;99.90
65146;DHT22;51730;56.950;24.126;2022-10-16T17:13:47;14.40;99.90
65146;DHT22;51730;56.950;24.126;2022-10-16T17:16:20;14.50;99.90
65146;DHT22;51730;56.950;24.126;2022-10-16T17:18:47;14.40;99.90
65146;DHT22;51730;56.950;24.126;2022-10-16T17:21:14;14.40;99.90
65146;DHT22;51730;56.950;24.126;2022-10-16T17:23:41;14.40;99.90
65146;DHT22;51730;56.950;24.126;2022-10-16T17:26:13;14.40;99.90
65146;DHT22;51730;56.950;24.126;2022-10-16T17:28:41;14.40;99.90
65146;DHT22;51730;56.950;24.126;2022-10-16T17:31:28;14.50;99.90
65146;DHT22;51730;56.950;24.126;2022-10-16T17:33:57;14.40;99.90
65146;DHT22;51730;56.950;24.126;2022-10-16T17:36:25;14.40;99.90
65146;DHT22;51730;56.950;24.126;2022-10-16T17:38:57;14.40;99.90
65146;DHT22;51730;56.950;24.126;2022-10-16T17:41:26;14.30;99.90
65146;DHT22;51730;56.950;24.126;2022-10-16T17:43:52;14.40;99.90
65146;DHT22;51730;56.950;24.126;2022-10-16T17:46:21;14.30;99.90
65146;DHT22;51730;56.950;24.126;2022-10-16T17:48:50;14.30;99.90